createdAt,value
2022-09-05T00:04:24.597Z,101832.00
2022-09-05T00:09:46.134Z,101817.91
2022-09-05T00:15:16.597Z,101848.25
2022-09-05T00:24:27.972Z,101852.69
2022-09-05T00:26:12.485Z,101855.44
2022-09-05T00:31:53.511Z,101853.69
2022-09-05T00:36:55.387Z,101844.22
2022-09-05T00:41:55.965Z,101814.81
2022-09-05T00:47:23.431Z,101805.31
2022-09-05T00:53:07.365Z,101829.72
2022-09-05T00:58:34.184Z,101865.06
2022-09-05T01:03:34.972Z,101878.91
2022-09-05T01:08:47.222Z,101870.06
2022-09-05T01:13:55.086Z,101877.66
2022-09-05T01:19:05.748Z,101834.84
2022-09-05T01:24:27.944Z,101885.78
2022-09-05T01:29:50.541Z,101851.94
2022-09-05T01:35:17.675Z,101844.25
2022-09-05T01:40:38.505Z,101882.97
2022-09-05T01:45:55.076Z,101873.44
2022-09-05T01:51:10.758Z,101877.13
2022-09-05T01:56:53.547Z,101865.16
2022-09-05T02:02:13.660Z,101859.91
2022-09-05T02:07:35.639Z,101866.50
2022-09-05T02:13:03.510Z,101860.41
2022-09-05T02:18:03.287Z,101815.28
2022-09-05T02:23:26.081Z,101862.94
2022-09-05T02:28:48.217Z,101820.41
2022-09-05T02:34:02.135Z,101821.25
2022-09-05T02:45:04.109Z,101838.81
2022-09-05T02:45:26.726Z,101824.19
2022-09-05T02:56:08.246Z,101843.44
2022-09-05T02:57:38.789Z,101833.78
2022-09-05T03:01:45.282Z,101835.13
2022-09-05T03:07:09.436Z,101869.06
2022-09-05T03:12:28.252Z,101877.63
2022-09-05T03:18:20.246Z,101880.94
2022-09-05T03:23:37.133Z,101882.06
2022-09-05T03:28:54.527Z,101889.34
2022-09-05T03:34:13.867Z,101884.38
2022-09-05T03:39:15.549Z,101889.81
2022-09-05T03:44:25.132Z,101894.09
2022-09-05T03:52:44.426Z,101904.44
2022-09-05T03:57:12.924Z,101913.84
2022-09-05T04:00:45.334Z,101883.78
2022-09-05T04:08:25.941Z,101887.22
2022-09-05T04:12:31.613Z,101896.91
2022-09-05T04:17:53.121Z,101898.56
2022-09-05T04:23:26.985Z,101946.56
2022-09-05T04:28:53.160Z,101948.69
2022-09-05T04:34:01.134Z,101943.72
2022-09-05T04:39:27.479Z,101924.34
2022-09-05T04:44:55.627Z,101891.78
2022-09-05T04:49:59.356Z,101907.25
2022-09-05T04:55:03.721Z,101923.88
2022-09-05T05:06:00.513Z,101918.94
2022-09-05T05:06:12.920Z,101961.69
2022-09-05T05:16:07.661Z,101941.47
2022-09-05T05:18:16.111Z,101943.09
2022-09-05T05:23:08.286Z,101964.47
2022-09-05T05:28:24.352Z,101946.38
2022-09-05T05:33:37.922Z,101944.53
2022-09-05T05:38:51.063Z,101938.47
2022-09-05T05:43:50.255Z,101919.00
2022-09-05T05:48:56.809Z,101942.25
2022-09-05T05:54:17.962Z,101967.78
2022-09-05T05:59:55.392Z,101974.34
2022-09-05T06:05:13.838Z,101970.69
2022-09-05T06:14:55.184Z,101964.22
2022-09-05T06:16:18.317Z,101981.88
2022-09-05T06:22:05.954Z,101988.41
2022-09-05T06:27:17.988Z,102001.53
2022-09-05T06:32:31.661Z,101990.03
2022-09-05T06:37:42.775Z,102009.97
2022-09-05T06:42:56.023Z,102003.69
2022-09-05T06:48:00.548Z,101974.41
2022-09-05T06:53:19.700Z,102004.91
2022-09-05T06:58:37.942Z,102001.56
2022-09-05T07:03:52.142Z,102004.47
2022-09-05T07:08:57.766Z,101981.72
2022-09-05T07:14:09.739Z,102007.59
2022-09-05T07:19:27.813Z,102025.31
2022-09-05T07:24:53.729Z,101989.03
2022-09-05T07:29:53.399Z,102000.06
2022-09-05T07:35:04.695Z,102004.88
2022-09-05T07:40:25.884Z,102005.09
2022-09-05T07:45:30.273Z,102013.63
2022-09-05T07:54:56.211Z,101996.72
2022-09-05T07:56:50.903Z,101998.50
2022-09-05T08:01:14.265Z,102023.81
2022-09-05T08:07:14.345Z,102035.09
2022-09-05T08:11:48.252Z,102000.47
2022-09-05T08:16:46.827Z,101996.56
2022-09-05T08:21:49.161Z,101986.47
2022-09-05T08:27:16.232Z,102004.78
2022-09-05T08:32:40.499Z,102016.81
2022-09-05T08:37:39.647Z,102007.81
2022-09-05T08:44:39.452Z,101986.44
2022-09-05T08:48:21.857Z,102008.75
2022-09-05T08:53:54.828Z,102003.69
2022-09-05T09:00:18.836Z,102004.28
2022-09-05T09:06:12.272Z,101955.50
2022-09-05T09:10:55.553Z,102004.03
2022-09-05T09:16:11.528Z,101964.44
2022-09-05T09:21:30.953Z,101998.94
2022-09-05T09:26:34.498Z,101991.25
2022-09-05T09:31:32.916Z,101992.06
2022-09-05T09:37:01.948Z,101998.63
2022-09-05T09:42:32.384Z,101992.91
2022-09-05T09:47:55.053Z,101988.53
2022-09-05T09:53:03.954Z,101989.31
2022-09-05T10:10:33.314Z,101978.53
2022-09-05T10:10:58.215Z,101973.81
2022-09-05T10:15:39.911Z,101977.41
2022-09-05T10:21:18.008Z,101972.66
2022-09-05T10:26:27.596Z,101976.69
2022-09-05T10:35:07.860Z,101949.50
2022-09-05T10:37:12.140Z,101952.88
2022-09-05T10:42:16.835Z,101924.97
2022-09-05T10:47:36.811Z,101966.28
2022-09-05T10:53:01.466Z,101930.75
2022-09-05T10:58:07.920Z,101915.00
2022-09-05T11:03:15.470Z,101924.50
2022-09-05T11:08:37.056Z,101915.00
2022-09-05T11:13:47.998Z,101915.25
2022-09-05T11:18:58.429Z,101923.09
2022-09-05T11:24:27.370Z,101885.63
2022-09-05T11:29:39.359Z,101886.81
2022-09-05T11:40:09.610Z,101900.53
2022-09-05T11:40:56.306Z,101874.69
2022-09-05T11:45:58.724Z,101884.03
2022-09-05T11:51:11.828Z,101881.00
2022-09-05T11:56:52.496Z,101878.53
2022-09-05T12:01:53.286Z,101874.06
2022-09-05T12:13:17.266Z,101841.69
2022-09-05T12:18:41.510Z,101866.16
2022-09-05T12:25:16.430Z,101832.03
2022-09-05T12:29:33.432Z,101826.25
2022-09-05T12:41:37.513Z,101830.41
2022-09-05T12:41:42.270Z,101848.78
2022-09-05T12:42:10.081Z,101864.25
2022-09-05T12:45:56.836Z,101831.94
2022-09-05T12:51:06.430Z,101825.66
2022-09-05T12:57:33.272Z,101823.75
2022-09-05T13:03:12.713Z,101823.44
2022-09-05T13:07:02.540Z,101839.41
2022-09-05T13:14:48.704Z,101828.97
2022-09-05T13:17:51.610Z,101817.09
2022-09-05T13:22:52.523Z,101818.44
2022-09-05T13:27:57.195Z,101824.84
2022-09-05T13:37:56.039Z,101804.41
2022-09-05T13:38:48.545Z,101824.47
2022-09-05T13:43:50.763Z,101796.63
2022-09-05T13:49:32.698Z,101829.72
2022-09-05T13:54:24.427Z,101822.03
2022-09-05T13:59:25.097Z,101812.31
2022-09-05T14:05:17.729Z,101823.25
2022-09-05T14:10:47.222Z,101827.78
2022-09-05T14:15:59.029Z,101821.78
2022-09-05T14:21:18.297Z,101797.50
2022-09-05T14:26:22.975Z,101796.06
2022-09-05T14:34:05.754Z,101803.84
2022-09-05T14:37:40.804Z,101825.19
2022-09-05T14:42:24.934Z,101821.22
2022-09-05T14:47:43.913Z,101822.25
2022-09-05T15:02:43.897Z,101780.53
2022-09-05T15:11:56.330Z,101779.41
2022-09-05T15:14:38.560Z,101790.56
2022-09-05T15:20:12.671Z,101807.19
2022-09-05T15:25:21.702Z,101790.72
2022-09-05T15:30:35.037Z,101804.56
2022-09-05T15:35:42.510Z,101777.09
2022-09-05T15:40:43.519Z,101807.69
2022-09-05T15:45:41.558Z,101793.91
2022-09-05T15:50:55.202Z,101792.13
2022-09-05T15:56:00.160Z,101774.22
2022-09-05T16:01:13.135Z,101784.13
2022-09-05T16:10:50.491Z,101802.22
2022-09-05T16:23:17.035Z,101758.03
2022-09-05T16:23:38.108Z,101780.84
2022-09-05T16:28:03.964Z,101765.38
2022-09-05T16:33:12.851Z,101778.63
2022-09-05T16:38:49.173Z,101787.63
2022-09-05T16:43:57.933Z,101804.50
2022-09-05T16:49:18.023Z,101812.44
2022-09-05T16:54:27.095Z,101796.88
2022-09-05T16:59:30.148Z,101810.47
2022-09-05T17:04:29.758Z,101828.72
2022-09-05T17:09:44.190Z,101821.16
2022-09-05T17:14:50.102Z,101820.47
2022-09-05T17:20:06.748Z,101798.91
2022-09-05T17:29:21.143Z,101855.63
2022-09-05T17:36:19.094Z,101866.19
2022-09-05T17:41:44.864Z,101864.28
2022-09-05T17:46:48.678Z,101838.25
2022-09-05T17:51:55.691Z,101872.44
2022-09-05T17:56:55.003Z,101863.91
2022-09-05T18:02:08.369Z,101879.16
2022-09-05T18:07:33.467Z,101858.47
2022-09-05T18:13:13.486Z,101838.09
2022-09-05T18:18:05.495Z,101839.69
2022-09-05T18:23:37.099Z,101876.63
2022-09-05T18:29:06.342Z,101873.78
2022-09-05T18:34:19.159Z,101878.09
2022-09-05T18:39:24.247Z,101875.44
2022-09-05T18:44:27.989Z,101831.06
2022-09-05T18:50:23.863Z,101825.75
2022-09-05T18:56:08.972Z,101847.25
2022-09-05T19:00:45.035Z,101844.41
2022-09-05T19:05:55.297Z,101830.47
2022-09-05T19:11:00.919Z,101821.91
2022-09-05T19:16:42.160Z,101840.19
2022-09-05T19:21:22.110Z,101802.22
2022-09-05T19:26:33.924Z,101803.78
2022-09-05T19:37:09.041Z,101785.34
2022-09-05T19:37:26.146Z,101797.59
2022-09-05T19:47:29.443Z,101810.56
2022-09-05T19:48:07.725Z,101824.88
2022-09-05T19:53:08.001Z,101828.69
2022-09-05T19:58:24.672Z,101800.75
2022-09-05T20:03:22.980Z,101834.25
2022-09-05T20:08:45.566Z,101809.78
2022-09-05T20:13:45.517Z,101806.78
2022-09-05T20:18:44.511Z,101791.28
2022-09-05T20:23:49.490Z,101809.44
2022-09-05T20:28:51.500Z,101784.84
2022-09-05T20:34:04.112Z,101784.47
2022-09-05T20:43:30.782Z,101798.69
2022-09-05T20:44:50.673Z,101797.91
2022-09-05T20:54:06.089Z,101802.38
2022-09-05T20:55:43.471Z,101814.09
2022-09-05T21:01:19.688Z,101824.56
2022-09-05T21:25:36.624Z,101821.25
2022-09-05T21:30:45.396Z,101780.34
2022-09-05T21:35:44.851Z,101820.47
2022-09-05T21:40:44.521Z,101774.41
2022-09-05T21:47:42.351Z,101796.81
2022-09-05T21:51:14.440Z,101787.69
2022-09-05T21:59:24.926Z,101797.66
2022-09-05T22:02:08.527Z,101804.16
2022-09-05T22:07:09.204Z,101814.41
2022-09-05T22:12:30.415Z,101818.03
2022-09-05T22:17:29.537Z,101809.19
2022-09-05T22:22:28.915Z,101779.44
2022-09-05T22:27:27.723Z,101779.13
2022-09-05T22:32:35.057Z,101792.38
2022-09-05T22:37:35.854Z,101804.66
2022-09-05T22:42:34.938Z,101786.91
2022-09-05T22:47:33.832Z,101791.03
2022-09-05T22:52:31.829Z,101781.84
2022-09-05T22:57:30.324Z,101788.59
2022-09-05T23:02:29.254Z,101784.28
2022-09-05T23:07:36.241Z,101769.81
2022-09-05T23:12:44.826Z,101770.44
2022-09-05T23:17:52.451Z,101781.81
2022-09-05T23:22:51.171Z,101762.28
2022-09-05T23:27:50.809Z,101769.59
2022-09-05T23:32:50.998Z,101771.03
2022-09-05T23:37:49.507Z,101769.00
2022-09-05T23:42:57.803Z,101756.75
2022-09-05T23:47:57.323Z,101767.56
2022-09-05T23:52:55.972Z,101773.03
2022-09-05T23:57:58.547Z,101764.09
